Wetterdaten: Woche 06.07.09 - 12.07.09 (KW28)
Datum Zeit Temp. A. Feuchte A. Luftdruck Regen Wind Richtung Taupunkt Windchill Windben
06.07.2009 00:00 21,1 C 72 % 1007,4 hPa 0,0 l/m 1,9 km/h W-SW 15,7 C 21,1 C 10,9 km/h
06.07.2009 01:00 21,2 C 69 % 1007,0 hPa 0,0 l/m 0,6 km/h N 15,3 C 21,2 C 6,0 km/h
06.07.2009 02:00 20,8 C 70 % 1007,0 hPa 0,0 l/m 1,3 km/h S-SW 15,2 C 20,8 C 6,9 km/h
06.07.2009 03:00 20,3 C 73 % 1007,0 hPa 0,0 l/m 0,4 km/h N 15,3 C 20,3 C 4,4 km/h
06.07.2009 04:00 19,2 C 78 % 1007,3 hPa 0,0 l/m 0,3 km/h N 15,2 C 19,2 C 4,4 km/h
06.07.2009 05:00 17,7 C 84 % 1007,3 hPa 0,0 l/m 0,0 km/h N 15,0 C 17,7 C 1,2 km/h
06.07.2009 06:00 18,8 C 82 % 1007,5 hPa 0,0 l/m 0,1 km/h N 15,5 C 18,8 C 2,0 km/h
06.07.2009 07:00 21,0 C 76 % 1007,4 hPa 0,0 l/m 0,0 km/h N 16,6 C 21,0 C 0,8 km/h
06.07.2009 08:00 22,7 C 74 % 1007,3 hPa 0,0 l/m 0,2 km/h N 17,7 C 22,7 C 1,2 km/h
06.07.2009 09:00 23,8 C 66 % 1007,2 hPa 0,0 l/m 0,2 km/h N 17,1 C 23,8 C 2,4 km/h
06.07.2009 10:00 24,9 C 62 % 1007,2 hPa 0,0 l/m 0,6 km/h O-NO 17,0 C 24,9 C 4,8 km/h
06.07.2009 11:00 25,4 C 61 % 1007,0 hPa 0,0 l/m 1,0 km/h NO 17,4 C 25,4 C 4,4 km/h
06.07.2009 12:00 25,3 C 62 % 1006,6 hPa 0,0 l/m 0,8 km/h NO 17,4 C 25,3 C 3,2 km/h
06.07.2009 13:00 20,8 C 80 % 1006,8 hPa 10,9 l/m 2,5 km/h NW 17,1 C 20,8 C 10,5 km/h
06.07.2009 14:00 19,4 C 89 % 1006,9 hPa 1,3 l/m 1,4 km/h N-NO 17,5 C 19,4 C 5,2 km/h
06.07.2009 15:00 19,8 C 90 % 1007,1 hPa 0,3 l/m 1,4 km/h S 18,0 C 19,8 C 8,1 km/h
06.07.2009 16:00 19,3 C 91 % 1007,6 hPa 5,1 l/m 0,3 km/h N 17,8 C 19,3 C 2,7 km/h
06.07.2009 17:00 18,4 C 92 % 1008,1 hPa 13,4 l/m 2,2 km/h SW 17,0 C 18,4 C 10,5 km/h
06.07.2009 18:00 18,0 C 91 % 1008,3 hPa 3,5 l/m 1,3 km/h N-NW 16,5 C 18,0 C 9,3 km/h
06.07.2009 19:00 18,0 C 91 % 1008,0 hPa 1,0 l/m 0,2 km/h N 16,4 C 18,0 C 3,6 km/h
06.07.2009 20:00 18,3 C 90 % 1007,7 hPa 0,0 l/m 0,1 km/h N 16,6 C 18,3 C 2,4 km/h
06.07.2009 21:00 17,7 C 90 % 1007,9 hPa 0,0 l/m 0,2 km/h N 16,0 C 17,7 C 2,4 km/h
06.07.2009 22:00 17,6 C 88 % 1008,3 hPa 0,0 l/m 0,2 km/h N 15,6 C 17,6 C 2,4 km/h
06.07.2009 23:00 16,6 C 91 % 1008,4 hPa 0,0 l/m 0,0 km/h N 15,2 C 16,6 C 1,2 km/h
07.07.2009 00:00 16,3 C 93 % 1008,6 hPa 0,0 l/m 0,0 km/h N 15,1 C 16,3 C 1,6 km/h
07.07.2009 01:00 15,9 C 93 % 1009,0 hPa 0,0 l/m 0,0 km/h N 14,8 C 15,9 C 0,8 km/h
07.07.2009 02:00 15,3 C 94 % 1009,0 hPa 0,0 l/m 0,0 km/h N 14,3 C 15,3 C 0,8 km/h
07.07.2009 03:00 15,2 C 94 % 1008,9 hPa 0,0 l/m 0,0 km/h N 14,2 C 15,2 C 0,4 km/h
07.07.2009 04:00 15,1 C 94 % 1008,9 hPa 0,0 l/m 0,0 km/h N 14,2 C 15,1 C 0,0 km/h
07.07.2009 05:00 15,0 C 94 % 1008,9 hPa 0,0 l/m 0,0 km/h N 14,0 C 15,0 C 0,4 km/h
07.07.2009 06:00 16,4 C 95 % 1008,9 hPa 0,0 l/m 0,0 km/h N 15,5 C 16,4 C 0,0 km/h
07.07.2009 07:00 18,4 C 89 % 1009,0 hPa 0,0 l/m 0,1 km/h N 16,4 C 18,4 C 2,0 km/h
07.07.2009 08:00 20,6 C 77 % 1008,9 hPa 0,0 l/m 0,8 km/h S 16,4 C 20,6 C 6,0 km/h
07.07.2009 09:00 21,9 C 70 % 1008,8 hPa 0,0 l/m 1,5 km/h SW 16,2 C 21,9 C 10,5 km/h
07.07.2009 10:00 23,3 C 68 % 1008,8 hPa 0,0 l/m 1,8 km/h NO 17,1 C 23,3 C 6,8 km/h
07.07.2009 11:00 24,6 C 61 % 1008,6 hPa 0,0 l/m 1,9 km/h S 16,5 C 24,6 C 6,4 km/h
07.07.2009 12:00 25,7 C 57 % 1008,2 hPa 0,0 l/m 2,0 km/h W-SW 16,4 C 25,7 C 8,0 km/h
07.07.2009 13:00 26,2 C 54 % 1007,7 hPa 0,0 l/m 3,7 km/h N-NO 16,0 C 26,2 C 9,3 km/h
07.07.2009 14:00 26,6 C 51 % 1006,8 hPa 0,0 l/m 2,2 km/h N-NO 15,7 C 26,6 C 6,8 km/h
07.07.2009 15:00 26,6 C 52 % 1006,0 hPa 0,0 l/m 1,3 km/h N-NW 15,9 C 26,6 C 5,2 km/h
07.07.2009 16:00 25,8 C 53 % 1005,6 hPa 0,0 l/m 1,3 km/h S 15,6 C 25,8 C 7,2 km/h
07.07.2009 17:00 25,0 C 58 % 1005,3 hPa 0,0 l/m 3,8 km/h S-SW 16,0 C 25,0 C 14,5 km/h
07.07.2009 18:00 24,3 C 60 % 1004,9 hPa 0,0 l/m 2,6 km/h S 16,0 C 24,3 C 12,5 km/h
07.07.2009 19:00 23,5 C 59 % 1004,7 hPa 0,0 l/m 1,7 km/h S-SO 15,1 C 23,5 C 8,4 km/h
07.07.2009 20:00 21,6 C 70 % 1004,6 hPa 0,0 l/m 2,8 km/h S 15,8 C 21,6 C 12,5 km/h
07.07.2009 21:00 19,7 C 82 % 1005,3 hPa 0,6 l/m 0,5 km/h S 16,5 C 19,7 C 3,6 km/h
07.07.2009 22:00 18,3 C 85 % 1006,1 hPa 0,3 l/m 3,5 km/h S-SW 15,7 C 18,3 C 11,7 km/h
07.07.2009 23:00 17,3 C 81 % 1006,5 hPa 0,0 l/m 5,8 km/h O 14,0 C 17,2 C 24,5 km/h
08.07.2009 00:00 16,6 C 82 % 1007,2 hPa 1,0 l/m 6,4 km/h W 13,4 C 16,3 C 24,1 km/h
08.07.2009 01:00 15,9 C 86 % 1007,6 hPa 0,3 l/m 3,3 km/h O-NO 13,6 C 15,9 C 14,5 km/h
08.07.2009 02:00 15,9 C 84 % 1007,5 hPa 0,3 l/m 2,1 km/h S-SO 13,1 C 15,9 C 10,0 km/h
08.07.2009 03:00 16,1 C 78 % 1007,3 hPa 0,0 l/m 4,6 km/h O-NO 12,2 C 16,1 C 21,3 km/h
08.07.2009 04:00 16,3 C 71 % 1007,3 hPa 0,0 l/m 4,8 km/h W 11,1 C 16,3 C 20,5 km/h
08.07.2009 05:00 15,9 C 75 % 1007,8 hPa 0,6 l/m 3,3 km/h S 11,4 C 15,9 C 16,9 km/h
08.07.2009 06:00 15,7 C 77 % 1008,3 hPa 0,3 l/m 3,4 km/h W-NW 11,6 C 15,7 C 18,5 km/h
08.07.2009 07:00 16,3 C 73 % 1008,5 hPa 0,0 l/m 3,7 km/h SO 11,5 C 16,3 C 16,1 km/h
08.07.2009 08:00 17,3 C 71 % 1008,9 hPa 0,0 l/m 4,3 km/h SW 12,0 C 17,3 C 18,5 km/h
08.07.2009 09:00 17,6 C 69 % 1009,2 hPa 0,0 l/m 5,3 km/h O-SO 11,8 C 17,6 C 21,3 km/h
08.07.2009 10:00 17,4 C 69 % 1009,9 hPa 0,0 l/m 3,5 km/h S-SW 11,5 C 17,4 C 15,7 km/h
08.07.2009 11:00 18,0 C 66 % 1010,1 hPa 0,0 l/m 3,5 km/h SW 11,6 C 18,0 C 17,7 km/h
08.07.2009 12:00 19,4 C 60 % 1009,9 hPa 0,0 l/m 2,7 km/h S-SW 11,5 C 19,4 C 10,9 km/h
08.07.2009 13:00 20,2 C 56 % 1009,9 hPa 0,0 l/m 5,3 km/h SW 11,2 C 20,2 C 22,1 km/h
08.07.2009 14:00 21,0 C 53 % 1009,6 hPa 0,0 l/m 5,2 km/h S-SO 11,1 C 20,9 C 19,3 km/h
08.07.2009 15:00 20,6 C 55 % 1009,7 hPa 0,0 l/m 6,3 km/h W 11,2 C 20,5 C 23,7 km/h
08.07.2009 16:00 20,9 C 54 % 1009,8 hPa 0,0 l/m 7,4 km/h O-NO 11,2 C 20,5 C 27,8 km/h
08.07.2009 17:00 20,5 C 52 % 1009,6 hPa 0,0 l/m 6,4 km/h SW 10,4 C 20,4 C 23,3 km/h
08.07.2009 18:00 20,6 C 54 % 1009,7 hPa 0,0 l/m 4,3 km/h N-NO 11,0 C 20,6 C 18,1 km/h
08.07.2009 19:00 20,0 C 58 % 1010,2 hPa 0,0 l/m 3,4 km/h W-SW 11,5 C 20,0 C 12,1 km/h
08.07.2009 20:00 19,0 C 61 % 1010,8 hPa 0,0 l/m 2,3 km/h SW 11,2 C 19,0 C 11,3 km/h
08.07.2009 21:00 18,1 C 62 % 1011,7 hPa 0,0 l/m 3,5 km/h S-SW 10,6 C 18,1 C 16,1 km/h
08.07.2009 22:00 17,7 C 62 % 1012,1 hPa 0,0 l/m 4,3 km/h SW 10,4 C 17,7 C 18,9 km/h
08.07.2009 23:00 17,4 C 65 % 1012,5 hPa 0,0 l/m 4,1 km/h S-SO 10,7 C 17,4 C 15,3 km/h
09.07.2009 00:00 17,4 C 66 % 1012,6 hPa 0,0 l/m 3,0 km/h O-SO 10,9 C 17,4 C 15,3 km/h
09.07.2009 01:00 17,3 C 66 % 1012,9 hPa 0,0 l/m 2,8 km/h S-SO 10,9 C 17,3 C 16,9 km/h
09.07.2009 02:00 17,1 C 63 % 1013,2 hPa 0,0 l/m 2,9 km/h SW 10,0 C 17,1 C 16,9 km/h
09.07.2009 03:00 16,8 C 64 % 1013,3 hPa 0,0 l/m 4,3 km/h SW 10,0 C 16,8 C 19,3 km/h
09.07.2009 04:00 16,4 C 66 % 1013,7 hPa 0,0 l/m 2,9 km/h S-SW 10,0 C 16,4 C 12,9 km/h
09.07.2009 05:00 16,3 C 65 % 1013,9 hPa 0,0 l/m 3,0 km/h SW 9,7 C 16,3 C 15,7 km/h
09.07.2009 06:00 16,6 C 65 % 1014,3 hPa 0,0 l/m 1,6 km/h S-SW 10,0 C 16,6 C 11,3 km/h
09.07.2009 07:00 17,1 C 65 % 1014,5 hPa 0,0 l/m 2,1 km/h SW 10,5 C 17,1 C 12,5 km/h
09.07.2009 08:00 18,2 C 62 % 1014,5 hPa 0,0 l/m 3,8 km/h SW 10,8 C 18,2 C 16,5 km/h
09.07.2009 09:00 19,3 C 59 % 1014,8 hPa 0,0 l/m 4,2 km/h S-SO 11,1 C 19,3 C 17,3 km/h
09.07.2009 10:00 20,4 C 56 % 1014,7 hPa 0,0 l/m 6,0 km/h SW 11,3 C 20,3 C 24,1 km/h
09.07.2009 11:00 21,3 C 53 % 1014,6 hPa 0,0 l/m 4,7 km/h NW 11,4 C 21,3 C 16,5 km/h
09.07.2009 12:00 21,7 C 52 % 1014,4 hPa 0,0 l/m 5,7 km/h S-SO 11,5 C 21,6 C 21,3 km/h
09.07.2009 13:00 22,0 C 54 % 1013,8 hPa 0,0 l/m 5,9 km/h SO 12,1 C 21,9 C 16,9 km/h
09.07.2009 14:00 22,4 C 51 % 1013,3 hPa 0,0 l/m 6,4 km/h S-SO 11,7 C 22,2 C 22,5 km/h
09.07.2009 15:00 22,7 C 49 % 1013,3 hPa 0,0 l/m 6,2 km/h W-NW 11,2 C 22,5 C 17,3 km/h
09.07.2009 16:00 21,8 C 52 % 1013,7 hPa 0,0 l/m 5,6 km/h SW 11,5 C 21,8 C 19,3 km/h
09.07.2009 17:00 21,1 C 57 % 1013,4 hPa 0,0 l/m 7,2 km/h W-SW 12,1 C 20,8 C 19,7 km/h
09.07.2009 18:00 20,7 C 61 % 1013,1 hPa 0,0 l/m 5,1 km/h SW 12,9 C 20,7 C 18,1 km/h
09.07.2009 19:00 20,0 C 64 % 1013,0 hPa 0,0 l/m 2,5 km/h S 12,9 C 20,0 C 12,1 km/h
09.07.2009 20:00 18,9 C 67 % 1013,2 hPa 0,0 l/m 1,2 km/h SW 12,6 C 18,9 C 5,2 km/h
09.07.2009 21:00 17,5 C 60 % 1014,1 hPa 0,0 l/m 1,5 km/h N-NW 9,6 C 17,5 C 6,8 km/h
09.07.2009 22:00 15,3 C 70 % 1014,3 hPa 0,0 l/m 0,0 km/h N 9,8 C 15,3 C 0,8 km/h
09.07.2009 23:00 14,5 C 75 % 1014,4 hPa 0,0 l/m 0,3 km/h N 10,1 C 14,5 C 3,6 km/h
10.07.2009 00:00 15,0 C 73 % 1014,4 hPa 0,0 l/m 0,4 km/h N 10,2 C 15,0 C 4,8 km/h
10.07.2009 01:00 15,6 C 72 % 1013,8 hPa 0,0 l/m 0,6 km/h S 10,5 C 15,6 C 5,2 km/h
10.07.2009 02:00 16,0 C 70 % 1013,6 hPa 0,0 l/m 0,3 km/h N 10,4 C 16,0 C 4,0 km/h
10.07.2009 03:00 17,3 C 63 % 1013,4 hPa 0,0 l/m 0,7 km/h N 10,0 C 17,3 C 6,4 km/h
10.07.2009 04:00 15,0 C 78 % 1013,3 hPa 0,0 l/m 0,0 km/h N 11,2 C 15,0 C 0,4 km/h
10.07.2009 05:00 15,1 C 79 % 1013,7 hPa 0,0 l/m 0,0 km/h N 11,4 C 15,1 C 0,8 km/h
10.07.2009 06:00 15,4 C 79 % 1014,3 hPa 0,0 l/m 0,0 km/h N 11,8 C 15,4 C 0,8 km/h
10.07.2009 07:00 15,2 C 84 % 1014,6 hPa 0,3 l/m 0,0 km/h N 12,5 C 15,2 C 2,0 km/h
10.07.2009 08:00 15,8 C 82 % 1014,7 hPa 0,0 l/m 0,3 km/h N 12,6 C 15,8 C 4,0 km/h
10.07.2009 09:00 16,5 C 80 % 1014,6 hPa 0,0 l/m 1,0 km/h W-SW 13,1 C 16,5 C 6,0 km/h
10.07.2009 10:00 17,1 C 78 % 1014,9 hPa 0,0 l/m 0,7 km/h S-SW 13,3 C 17,1 C 4,4 km/h
10.07.2009 11:00 17,6 C 78 % 1015,0 hPa 0,3 l/m 0,7 km/h S-SW 13,8 C 17,6 C 4,4 km/h
10.07.2009 12:00 18,5 C 68 % 1014,9 hPa 0,0 l/m 1,1 km/h SW 12,3 C 18,5 C 6,4 km/h
10.07.2009 13:00 19,3 C 61 % 1014,8 hPa 0,0 l/m 2,7 km/h N-NO 11,6 C 19,3 C 12,1 km/h
10.07.2009 14:00 19,3 C 65 % 1014,3 hPa 0,0 l/m 2,8 km/h S 12,6 C 19,3 C 11,7 km/h
10.07.2009 15:00 20,0 C 60 % 1014,2 hPa 0,0 l/m 4,1 km/h S 11,9 C 20,0 C 15,7 km/h
10.07.2009 16:00 19,9 C 54 % 1013,8 hPa 0,0 l/m 3,9 km/h S 10,3 C 19,9 C 18,1 km/h
10.07.2009 17:00 20,7 C 53 % 1013,2 hPa 0,0 l/m 3,9 km/h O-SO 10,6 C 20,7 C 16,5 km/h
10.07.2009 18:00 20,3 C 52 % 1013,1 hPa 0,0 l/m 2,3 km/h NW 9,9 C 20,3 C 11,7 km/h
10.07.2009 19:00 19,5 C 49 % 1013,4 hPa 0,0 l/m 2,1 km/h S-SW 8,6 C 19,5 C 10,9 km/h
10.07.2009 20:00 18,2 C 53 % 1013,9 hPa 0,0 l/m 1,3 km/h SW 8,4 C 18,2 C 8,0 km/h
10.07.2009 21:00 17,2 C 57 % 1014,1 hPa 0,0 l/m 1,2 km/h S-SW 8,5 C 17,2 C 9,6 km/h
10.07.2009 22:00 16,8 C 58 % 1014,5 hPa 0,0 l/m 1,8 km/h S-SO 8,4 C 16,8 C 8,8 km/h
10.07.2009 23:00 16,3 C 60 % 1014,8 hPa 0,0 l/m 2,8 km/h SO 8,6 C 16,3 C 20,9 km/h
11.07.2009 00:00 15,7 C 62 % 1014,9 hPa 0,0 l/m 2,2 km/h SW 8,5 C 15,7 C 14,9 km/h
11.07.2009 01:00 15,7 C 62 % 1014,9 hPa 0,0 l/m 2,4 km/h N-NO 8,5 C 15,7 C 11,3 km/h
11.07.2009 02:00 15,1 C 64 % 1015,4 hPa 0,0 l/m 1,6 km/h SW 8,4 C 15,1 C 7,6 km/h
11.07.2009 03:00 15,0 C 65 % 1015,4 hPa 0,0 l/m 2,9 km/h W-NW 8,6 C 15,0 C 14,9 km/h
11.07.2009 04:00 14,7 C 67 % 1015,4 hPa 0,0 l/m 2,8 km/h S-SO 8,6 C 14,7 C 11,3 km/h
11.07.2009 05:00 14,7 C 67 % 1015,6 hPa 0,0 l/m 2,6 km/h O-SO 8,6 C 14,7 C 13,3 km/h
11.07.2009 06:00 15,2 C 66 % 1015,8 hPa 0,0 l/m 4,2 km/h SO 8,8 C 15,2 C 15,3 km/h
11.07.2009 07:00 15,6 C 65 % 1016,2 hPa 0,0 l/m 4,0 km/h W 9,1 C 15,6 C 17,7 km/h
11.07.2009 08:00 16,3 C 64 % 1016,2 hPa 0,0 l/m 3,2 km/h W 9,5 C 16,3 C 9,6 km/h
11.07.2009 09:00 17,0 C 62 % 1016,0 hPa 0,0 l/m 4,9 km/h NW 9,6 C 17,0 C 20,5 km/h
11.07.2009 10:00 18,1 C 60 % 1016,1 hPa 0,0 l/m 5,3 km/h NW 10,2 C 18,1 C 17,3 km/h
11.07.2009 11:00 19,8 C 55 % 1016,0 hPa 0,0 l/m 4,6 km/h NW 10,3 C 19,8 C 15,7 km/h
11.07.2009 12:00 20,0 C 54 % 1015,8 hPa 0,0 l/m 6,9 km/h SW 10,2 C 19,7 C 18,1 km/h
11.07.2009 13:00 19,5 C 55 % 1015,8 hPa 0,0 l/m 4,3 km/h NW 10,1 C 19,5 C 15,7 km/h
11.07.2009 14:00 19,5 C 57 % 1015,8 hPa 0,0 l/m 4,0 km/h N-NO 10,6 C 19,5 C 10,4 km/h
11.07.2009 15:00 20,9 C 51 % 1015,7 hPa 0,0 l/m 4,5 km/h NW 10,3 C 20,9 C 12,5 km/h
11.07.2009 16:00 20,8 C 51 % 1015,6 hPa 0,0 l/m 3,0 km/h N-NW 10,3 C 20,8 C 9,7 km/h
11.07.2009 17:00 20,2 C 52 % 1015,6 hPa 0,0 l/m 3,8 km/h N-NW 10,0 C 20,2 C 9,3 km/h
11.07.2009 18:00 20,1 C 52 % 1015,5 hPa 0,0 l/m 4,0 km/h N-NW 9,8 C 20,1 C 8,9 km/h
11.07.2009 19:00 19,6 C 55 % 1015,6 hPa 0,0 l/m 1,3 km/h N-NW 10,3 C 19,6 C 4,4 km/h
11.07.2009 20:00 17,8 C 63 % 1015,8 hPa 0,0 l/m 0,1 km/h N 10,6 C 17,8 C 0,4 km/h
11.07.2009 21:00 15,4 C 75 % 1016,4 hPa 0,0 l/m 0,0 km/h N 11,0 C 15,4 C 0,8 km/h
11.07.2009 22:00 14,9 C 76 % 1016,6 hPa 0,0 l/m 0,1 km/h N 10,7 C 14,9 C 2,0 km/h
11.07.2009 23:00 15,2 C 75 % 1016,8 hPa 0,0 l/m 0,2 km/h N 10,7 C 15,2 C 3,6 km/h
12.07.2009 00:00 15,8 C 72 % 1016,8 hPa 0,0 l/m 3,3 km/h SW 10,8 C 15,8 C 12,5 km/h
12.07.2009 01:00 15,6 C 74 % 1016,4 hPa 0,0 l/m 0,2 km/h N 10,9 C 15,6 C 2,4 km/h
12.07.2009 02:00 15,0 C 77 % 1016,0 hPa 0,0 l/m 0,0 km/h N 11,0 C 15,0 C 1,2 km/h
12.07.2009 03:00 15,2 C 74 % 1015,8 hPa 0,0 l/m 0,3 km/h N 10,6 C 15,2 C 2,8 km/h
12.07.2009 04:00 14,6 C 75 % 1015,9 hPa 0,0 l/m 0,3 km/h N 10,2 C 14,6 C 3,2 km/h
12.07.2009 05:00 15,1 C 69 % 1015,9 hPa 0,0 l/m 0,1 km/h N 9,4 C 15,1 C 2,8 km/h
12.07.2009 06:00 15,5 C 68 % 1015,8 hPa 0,0 l/m 0,2 km/h N 9,7 C 15,5 C 2,4 km/h
12.07.2009 07:00 17,0 C 65 % 1015,8 hPa 0,0 l/m 0,6 km/h NW 10,3 C 17,0 C 5,6 km/h
12.07.2009 08:00 18,6 C 58 % 1015,8 hPa 0,0 l/m 1,4 km/h NW 10,0 C 18,6 C 7,2 km/h
12.07.2009 09:00 19,7 C 53 % 1015,5 hPa 0,0 l/m 1,7 km/h SW 9,9 C 19,7 C 6,8 km/h
12.07.2009 10:00 20,9 C 49 % 1015,3 hPa 0,0 l/m 2,8 km/h NW 9,7 C 20,9 C 10,4 km/h
12.07.2009 11:00 22,2 C 46 % 1015,1 hPa 0,0 l/m 2,6 km/h SW 10,1 C 22,2 C 11,3 km/h
12.07.2009 12:00 23,6 C 44 % 1014,6 hPa 0,0 l/m 2,8 km/h SW 10,6 C 23,6 C 14,9 km/h
12.07.2009 13:00 24,1 C 40 % 1014,1 hPa 0,0 l/m 3,4 km/h W-SW 9,7 C 24,1 C 11,3 km/h
12.07.2009 14:00 24,8 C 39 % 1013,7 hPa 0,0 l/m 4,1 km/h NW 9,9 C 24,8 C 12,1 km/h
12.07.2009 15:00 25,0 C 38 % 1013,3 hPa 0,0 l/m 4,1 km/h NW 9,6 C 25,0 C 12,5 km/h
12.07.2009 16:00 24,7 C 37 % 1013,2 hPa 0,0 l/m 5,4 km/h N 9,0 C 24,7 C 14,5 km/h
12.07.2009 17:00 24,9 C 37 % 1013,3 hPa 0,0 l/m 3,9 km/h S-SO 8,9 C 24,9 C 14,1 km/h
12.07.2009 18:00 24,3 C 37 % 1013,2 hPa 0,0 l/m 2,9 km/h S 8,5 C 24,3 C 10,5 km/h
12.07.2009 19:00 23,5 C 41 % 1013,0 hPa 0,0 l/m 1,8 km/h S-SW 9,4 C 23,5 C 9,3 km/h
12.07.2009 20:00 21,9 C 49 % 1013,2 hPa 0,0 l/m 1,3 km/h SW 10,8 C 21,9 C 6,4 km/h
12.07.2009 21:00 20,8 C 55 % 1013,2 hPa 0,0 l/m 0,7 km/h S-SW 11,3 C 20,8 C 4,8 km/h
12.07.2009 22:00 20,0 C 58 % 1013,2 hPa 0,0 l/m 1,8 km/h SW 11,3 C 20,0 C 7,2 km/h
12.07.2009 23:00 19,6 C 59 % 1013,1 hPa 0,0 l/m 1,2 km/h SW 11,4 C 19,6 C 6,0 km/h
Min-Datum _ 09.07.09 12.07.09 07.07.09 - 06.07.09 - 12.07.09 09.07.09 06.07.09
_ Min-Zeit 23:15 15:30 20:15 - 05:00 - 18:30 23:15 05:45
Minimum _ 13,8 C 34 % 1004,5 hPa - 0,0 km/h - 7,8 C 14,0 C 0,0 km/h
Max-Datum _ 07.07.09 07.07.09 12.07.09 06.07.09 08.07.09 - 06.07.09 07.07.09 07.07.09
_ Max-Zeit 15:30 06:00 00:00 17:00 16:15 - 15:00 15:30 23:45
Maximum _ 27,7 C 95 % 1017,0 hPa 13,4 l/m 8,7 km/h
O-NO
- 18,3 C 27,7 C 30,6 km/h
W-SW
Durchschnitt _ 19,0 C 66 % 1011,8 hPa #39,7 l/m 2,4 km/h SW 12,2 C 19,0 C 10,2 km/h